sensor_id;sensor_type;location;lat;lon;timestamp;pressure;altitude;pressure_sealevel;temperature;humidity
49063;BME280;34876;51.464;-0.150;2023-01-31T00:01:48;102633.31;;;16.47;37.00
49063;BME280;34876;51.464;-0.150;2023-01-31T00:04:18;102629.86;;;16.46;37.07
49063;BME280;34876;51.464;-0.150;2023-01-31T00:06:46;102639.39;;;16.47;37.03
49063;BME280;34876;51.464;-0.150;2023-01-31T00:09:16;102639.48;;;16.48;36.98
49063;BME280;34876;51.464;-0.150;2023-01-31T00:11:46;102628.71;;;16.48;37.03
49063;BME280;34876;51.464;-0.150;2023-01-31T00:14:18;102627.54;;;16.48;36.99
49063;BME280;34876;51.464;-0.150;2023-01-31T00:16:47;102637.59;;;16.48;36.92
49063;BME280;34876;51.464;-0.150;2023-01-31T00:19:16;102645.86;;;16.48;37.00
49063;BME280;34876;51.464;-0.150;2023-01-31T00:21:45;102638.67;;;16.47;37.01
49063;BME280;34876;51.464;-0.150;2023-01-31T00:24:14;102636.37;;;16.47;36.98
49063;BME280;34876;51.464;-0.150;2023-01-31T00:26:43;102624.52;;;16.48;36.94
49063;BME280;34876;51.464;-0.150;2023-01-31T00:29:12;102627.24;;;16.49;36.93
49063;BME280;34876;51.464;-0.150;2023-01-31T00:31:41;102620.58;;;16.47;36.95
49063;BME280;34876;51.464;-0.150;2023-01-31T00:34:10;102601.62;;;16.48;36.92
49063;BME280;34876;51.464;-0.150;2023-01-31T00:36:39;102594.51;;;16.49;36.94
49063;BME280;34876;51.464;-0.150;2023-01-31T00:39:09;102582.50;;;16.49;36.89
49063;BME280;34876;51.464;-0.150;2023-01-31T00:41:38;102588.66;;;16.48;37.03
49063;BME280;34876;51.464;-0.150;2023-01-31T00:44:07;102579.52;;;16.50;36.93
49063;BME280;34876;51.464;-0.150;2023-01-31T00:46:35;102583.29;;;16.52;36.96
49063;BME280;34876;51.464;-0.150;2023-01-31T00:49:04;102586.06;;;16.50;36.94
49063;BME280;34876;51.464;-0.150;2023-01-31T00:51:33;102576.00;;;16.50;36.89
49063;BME280;34876;51.464;-0.150;2023-01-31T00:54:02;102575.40;;;16.50;36.96
49063;BME280;34876;51.464;-0.150;2023-01-31T00:56:31;102586.56;;;16.50;36.96
49063;BME280;34876;51.464;-0.150;2023-01-31T00:59:00;102588.62;;;16.50;36.87
49063;BME280;34876;51.464;-0.150;2023-01-31T01:03:52;102577.08;;;16.52;36.81
49063;BME280;34876;51.464;-0.150;2023-01-31T01:06:22;102580.62;;;16.51;36.93
49063;BME280;34876;51.464;-0.150;2023-01-31T01:08:52;102588.39;;;16.51;36.88
49063;BME280;34876;51.464;-0.150;2023-01-31T01:11:24;102589.57;;;16.51;36.89
49063;BME280;34876;51.464;-0.150;2023-01-31T01:13:54;102587.22;;;16.51;36.97
49063;BME280;34876;51.464;-0.150;2023-01-31T01:16:26;102586.66;;;16.51;36.91
49063;BME280;34876;51.464;-0.150;2023-01-31T01:18:55;102585.00;;;16.50;36.97
49063;BME280;34876;51.464;-0.150;2023-01-31T01:21:26;102584.96;;;16.52;36.87
49063;BME280;34876;51.464;-0.150;2023-01-31T01:23:57;102574.38;;;16.51;37.06
49063;BME280;34876;51.464;-0.150;2023-01-31T01:26:29;102567.80;;;16.50;37.06
49063;BME280;34876;51.464;-0.150;2023-01-31T01:28:59;102576.12;;;16.50;36.96
49063;BME280;34876;51.464;-0.150;2023-01-31T01:31:29;102565.42;;;16.49;36.99
49063;BME280;34876;51.464;-0.150;2023-01-31T01:34:00;102554.45;;;16.50;36.87
49063;BME280;34876;51.464;-0.150;2023-01-31T01:36:31;102560.00;;;16.49;37.04
49063;BME280;34876;51.464;-0.150;2023-01-31T01:39:00;102559.54;;;16.50;36.97
49063;BME280;34876;51.464;-0.150;2023-01-31T01:41:30;102556.04;;;16.49;36.97
49063;BME280;34876;51.464;-0.150;2023-01-31T01:44:01;102557.92;;;16.50;37.01
49063;BME280;34876;51.464;-0.150;2023-01-31T01:46:34;102551.86;;;16.48;37.00
49063;BME280;34876;51.464;-0.150;2023-01-31T01:49:13;102553.00;;;16.50;37.01
49063;BME280;34876;51.464;-0.150;2023-01-31T01:51:47;102544.44;;;16.48;36.99
49063;BME280;34876;51.464;-0.150;2023-01-31T01:54:21;102552.14;;;16.48;36.98
49063;BME280;34876;51.464;-0.150;2023-01-31T01:56:55;102555.36;;;16.43;37.14
49063;BME280;34876;51.464;-0.150;2023-01-31T01:59:32;102561.64;;;16.48;37.09
49063;BME280;34876;51.464;-0.150;2023-01-31T02:02:03;102563.79;;;16.46;37.12
49063;BME280;34876;51.464;-0.150;2023-01-31T02:04:35;102562.87;;;16.48;37.06
49063;BME280;34876;51.464;-0.150;2023-01-31T02:07:06;102565.19;;;16.46;37.07
49063;BME280;34876;51.464;-0.150;2023-01-31T02:09:41;102567.72;;;16.43;37.15
49063;BME280;34876;51.464;-0.150;2023-01-31T02:12:12;102566.45;;;16.48;36.99
49063;BME280;34876;51.464;-0.150;2023-01-31T02:14:42;102570.14;;;15.76;37.60
49063;BME280;34876;51.464;-0.150;2023-01-31T02:17:13;102565.33;;;16.17;37.75
49063;BME280;34876;51.464;-0.150;2023-01-31T02:19:48;102564.42;;;15.75;38.49
49063;BME280;34876;51.464;-0.150;2023-01-31T02:22:22;102557.95;;;15.74;38.44
49063;BME280;34876;51.464;-0.150;2023-01-31T02:25:07;102550.84;;;15.96;38.09
49063;BME280;34876;51.464;-0.150;2023-01-31T02:28:02;102549.31;;;15.63;38.36
49063;BME280;34876;51.464;-0.150;2023-01-31T02:30:57;102547.36;;;16.10;37.71
49063;BME280;34876;51.464;-0.150;2023-01-31T02:33:37;102549.12;;;16.12;37.75
49063;BME280;34876;51.464;-0.150;2023-01-31T02:36:16;102556.52;;;14.94;38.79
49063;BME280;34876;51.464;-0.150;2023-01-31T02:38:58;102544.50;;;15.60;38.69
49063;BME280;34876;51.464;-0.150;2023-01-31T02:41:35;102553.20;;;15.78;38.04
49063;BME280;34876;51.464;-0.150;2023-01-31T02:44:13;102548.85;;;14.88;40.44
49063;BME280;34876;51.464;-0.150;2023-01-31T02:46:54;102533.20;;;15.45;38.20
49063;BME280;34876;51.464;-0.150;2023-01-31T02:49:31;102523.75;;;15.91;38.27
49063;BME280;34876;51.464;-0.150;2023-01-31T02:52:10;102520.39;;;16.20;37.60
49063;BME280;34876;51.464;-0.150;2023-01-31T02:54:46;102514.87;;;16.29;37.42
49063;BME280;34876;51.464;-0.150;2023-01-31T02:57:18;102511.97;;;16.32;37.36
49063;BME280;34876;51.464;-0.150;2023-01-31T02:59:47;102515.50;;;16.34;37.34
49063;BME280;34876;51.464;-0.150;2023-01-31T03:02:17;102515.96;;;16.34;37.35
49063;BME280;34876;51.464;-0.150;2023-01-31T03:04:46;102515.53;;;16.36;37.32
49063;BME280;34876;51.464;-0.150;2023-01-31T03:07:16;102513.00;;;16.36;37.23
49063;BME280;34876;51.464;-0.150;2023-01-31T03:09:59;102508.00;;;16.38;37.25
49063;BME280;34876;51.464;-0.150;2023-01-31T03:12:38;102500.64;;;16.38;37.27
49063;BME280;34876;51.464;-0.150;2023-01-31T03:15:22;102499.84;;;16.38;37.26
49063;BME280;34876;51.464;-0.150;2023-01-31T03:17:57;102499.79;;;16.38;37.28
49063;BME280;34876;51.464;-0.150;2023-01-31T03:20:31;102498.73;;;16.38;37.33
49063;BME280;34876;51.464;-0.150;2023-01-31T03:23:05;102496.53;;;16.39;37.26
49063;BME280;34876;51.464;-0.150;2023-01-31T03:25:37;102496.88;;;16.38;37.25
49063;BME280;34876;51.464;-0.150;2023-01-31T03:28:10;102494.69;;;16.39;37.24
49063;BME280;34876;51.464;-0.150;2023-01-31T03:30:44;102492.20;;;16.38;37.34
49063;BME280;34876;51.464;-0.150;2023-01-31T03:33:20;102488.05;;;16.39;37.30
49063;BME280;34876;51.464;-0.150;2023-01-31T03:35:56;102486.38;;;16.39;37.28
49063;BME280;34876;51.464;-0.150;2023-01-31T03:38:31;102482.34;;;16.37;37.29
49063;BME280;34876;51.464;-0.150;2023-01-31T03:41:08;102491.43;;;16.37;37.40
49063;BME280;34876;51.464;-0.150;2023-01-31T03:43:48;102483.15;;;16.38;37.34
49063;BME280;34876;51.464;-0.150;2023-01-31T03:46:23;102475.11;;;16.38;37.40
49063;BME280;34876;51.464;-0.150;2023-01-31T03:48:57;102457.79;;;16.36;37.40
49063;BME280;34876;51.464;-0.150;2023-01-31T03:51:30;102442.63;;;16.37;37.40
49063;BME280;34876;51.464;-0.150;2023-01-31T03:54:03;102452.41;;;16.37;37.40
49063;BME280;34876;51.464;-0.150;2023-01-31T03:56:38;102449.91;;;16.34;37.55
49063;BME280;34876;51.464;-0.150;2023-01-31T03:59:12;102449.62;;;16.37;37.41
49063;BME280;34876;51.464;-0.150;2023-01-31T04:01:46;102459.48;;;16.38;37.46
49063;BME280;34876;51.464;-0.150;2023-01-31T04:04:20;102450.19;;;16.36;37.42
49063;BME280;34876;51.464;-0.150;2023-01-31T04:06:50;102454.10;;;16.36;37.41
49063;BME280;34876;51.464;-0.150;2023-01-31T04:09:19;102454.20;;;16.36;37.42
49063;BME280;34876;51.464;-0.150;2023-01-31T04:11:49;102447.44;;;16.34;37.61
49063;BME280;34876;51.464;-0.150;2023-01-31T04:14:18;102446.82;;;16.37;37.51
49063;BME280;34876;51.464;-0.150;2023-01-31T04:16:47;102457.13;;;16.36;37.54
49063;BME280;34876;51.464;-0.150;2023-01-31T04:19:16;102465.37;;;16.36;37.50
49063;BME280;34876;51.464;-0.150;2023-01-31T04:21:45;102458.56;;;16.36;37.52
49063;BME280;34876;51.464;-0.150;2023-01-31T04:24:14;102460.05;;;16.34;37.51
49063;BME280;34876;51.464;-0.150;2023-01-31T04:26:42;102458.35;;;16.30;37.69
49063;BME280;34876;51.464;-0.150;2023-01-31T04:29:11;102455.75;;;16.34;37.54
49063;BME280;34876;51.464;-0.150;2023-01-31T04:31:40;102449.32;;;16.35;37.55
49063;BME280;34876;51.464;-0.150;2023-01-31T04:34:09;102452.46;;;16.35;37.59
49063;BME280;34876;51.464;-0.150;2023-01-31T04:36:38;102463.55;;;16.35;37.57
49063;BME280;34876;51.464;-0.150;2023-01-31T04:39:09;102462.90;;;16.34;37.54
49063;BME280;34876;51.464;-0.150;2023-01-31T04:41:38;102460.11;;;16.34;37.63
49063;BME280;34876;51.464;-0.150;2023-01-31T04:44:07;102454.71;;;16.34;37.63
49063;BME280;34876;51.464;-0.150;2023-01-31T04:46:35;102453.62;;;16.32;37.68
49063;BME280;34876;51.464;-0.150;2023-01-31T04:49:04;102451.55;;;16.32;37.65
49063;BME280;34876;51.464;-0.150;2023-01-31T04:51:33;102449.73;;;16.34;37.64
49063;BME280;34876;51.464;-0.150;2023-01-31T04:54:03;102452.32;;;16.33;37.61
49063;BME280;34876;51.464;-0.150;2023-01-31T04:56:32;102452.32;;;16.33;37.65
49063;BME280;34876;51.464;-0.150;2023-01-31T04:59:01;102446.69;;;16.32;37.66
49063;BME280;34876;51.464;-0.150;2023-01-31T05:01:30;102441.19;;;16.31;37.67
49063;BME280;34876;51.464;-0.150;2023-01-31T05:03:59;102448.31;;;16.33;37.67
49063;BME280;34876;51.464;-0.150;2023-01-31T05:06:28;102446.21;;;16.31;37.68
49063;BME280;34876;51.464;-0.150;2023-01-31T05:08:57;102441.25;;;16.31;37.68
49063;BME280;34876;51.464;-0.150;2023-01-31T05:11:26;102439.82;;;16.30;37.69
49063;BME280;34876;51.464;-0.150;2023-01-31T05:13:55;102438.94;;;16.32;37.70
49063;BME280;34876;51.464;-0.150;2023-01-31T05:16:23;102440.02;;;16.31;37.68
49063;BME280;34876;51.464;-0.150;2023-01-31T05:18:52;102437.38;;;16.29;37.72
49063;BME280;34876;51.464;-0.150;2023-01-31T05:21:21;102431.63;;;16.29;37.77
49063;BME280;34876;51.464;-0.150;2023-01-31T05:23:50;102431.31;;;16.28;37.73
49063;BME280;34876;51.464;-0.150;2023-01-31T05:26:19;102435.09;;;16.27;37.80
49063;BME280;34876;51.464;-0.150;2023-01-31T05:28:48;102437.23;;;16.26;37.89
49063;BME280;34876;51.464;-0.150;2023-01-31T05:31:17;102435.44;;;16.26;37.91
49063;BME280;34876;51.464;-0.150;2023-01-31T05:33:46;102431.81;;;16.26;37.82
49063;BME280;34876;51.464;-0.150;2023-01-31T05:36:15;102426.17;;;16.26;37.89
49063;BME280;34876;51.464;-0.150;2023-01-31T05:38:44;102416.96;;;16.26;37.91
49063;BME280;34876;51.464;-0.150;2023-01-31T05:41:13;102417.36;;;16.25;37.93
49063;BME280;34876;51.464;-0.150;2023-01-31T05:43:42;102417.04;;;16.27;37.91
49063;BME280;34876;51.464;-0.150;2023-01-31T05:46:11;102409.42;;;16.26;37.91
49063;BME280;34876;51.464;-0.150;2023-01-31T05:48:40;102405.80;;;16.26;37.90
49063;BME280;34876;51.464;-0.150;2023-01-31T05:51:09;102402.88;;;16.27;37.93
49063;BME280;34876;51.464;-0.150;2023-01-31T05:53:38;102408.17;;;16.27;37.96
49063;BME280;34876;51.464;-0.150;2023-01-31T05:56:07;102408.84;;;16.27;37.89
49063;BME280;34876;51.464;-0.150;2023-01-31T05:58:36;102407.69;;;16.26;37.92
49063;BME280;34876;51.464;-0.150;2023-01-31T06:01:05;102401.53;;;16.24;37.96
49063;BME280;34876;51.464;-0.150;2023-01-31T06:03:35;102411.10;;;16.25;38.02
49063;BME280;34876;51.464;-0.150;2023-01-31T06:06:04;102406.09;;;16.25;38.04
49063;BME280;34876;51.464;-0.150;2023-01-31T06:08:33;102398.40;;;16.24;38.03
49063;BME280;34876;51.464;-0.150;2023-01-31T06:11:03;102390.03;;;16.24;38.03
49063;BME280;34876;51.464;-0.150;2023-01-31T06:13:32;102384.66;;;16.22;38.17
49063;BME280;34876;51.464;-0.150;2023-01-31T06:16:00;102383.87;;;16.22;38.13
49063;BME280;34876;51.464;-0.150;2023-01-31T06:18:30;102387.85;;;16.22;38.14
49063;BME280;34876;51.464;-0.150;2023-01-31T06:20:59;102389.47;;;16.21;38.14
49063;BME280;34876;51.464;-0.150;2023-01-31T06:23:28;102379.55;;;16.21;38.24
49063;BME280;34876;51.464;-0.150;2023-01-31T06:25:56;102389.65;;;16.10;38.53
49063;BME280;34876;51.464;-0.150;2023-01-31T06:28:26;102391.31;;;16.19;38.33
49063;BME280;34876;51.464;-0.150;2023-01-31T06:30:54;102382.40;;;16.21;38.15
49063;BME280;34876;51.464;-0.150;2023-01-31T06:33:23;102392.93;;;16.19;38.28
49063;BME280;34876;51.464;-0.150;2023-01-31T06:35:52;102395.35;;;16.20;38.32
49063;BME280;34876;51.464;-0.150;2023-01-31T06:38:21;102400.89;;;16.20;38.28
49063;BME280;34876;51.464;-0.150;2023-01-31T06:40:50;102396.41;;;16.21;38.38
49063;BME280;34876;51.464;-0.150;2023-01-31T06:43:19;102391.02;;;16.22;38.21
49063;BME280;34876;51.464;-0.150;2023-01-31T06:45:48;102384.91;;;15.98;39.07
49063;BME280;34876;51.464;-0.150;2023-01-31T06:48:17;102382.32;;;16.11;38.62
49063;BME280;34876;51.464;-0.150;2023-01-31T06:50:46;102374.64;;;16.18;38.65
49063;BME280;34876;51.464;-0.150;2023-01-31T06:53:15;102377.64;;;15.88;39.29
49063;BME280;34876;51.464;-0.150;2023-01-31T06:55:44;102367.72;;;16.04;38.99
49063;BME280;34876;51.464;-0.150;2023-01-31T06:58:12;102368.54;;;15.99;39.05
49063;BME280;34876;51.464;-0.150;2023-01-31T07:00:41;102366.11;;;16.17;38.73
49063;BME280;34876;51.464;-0.150;2023-01-31T07:03:10;102370.87;;;16.08;39.33
49063;BME280;34876;51.464;-0.150;2023-01-31T07:05:39;102368.24;;;16.23;38.64
49063;BME280;34876;51.464;-0.150;2023-01-31T07:08:08;102363.97;;;16.24;38.73
49063;BME280;34876;51.464;-0.150;2023-01-31T07:10:37;102361.40;;;16.16;38.82
49063;BME280;34876;51.464;-0.150;2023-01-31T07:13:06;102354.65;;;16.29;38.84
49063;BME280;34876;51.464;-0.150;2023-01-31T07:15:35;102355.24;;;16.27;38.78
49063;BME280;34876;51.464;-0.150;2023-01-31T07:18:04;102355.36;;;16.30;38.56
49063;BME280;34876;51.464;-0.150;2023-01-31T07:20:33;102357.72;;;16.29;38.87
49063;BME280;34876;51.464;-0.150;2023-01-31T07:23:01;102364.51;;;15.86;40.23
49063;BME280;34876;51.464;-0.150;2023-01-31T07:25:30;102371.24;;;16.12;39.50
49063;BME280;34876;51.464;-0.150;2023-01-31T07:27:59;102366.09;;;16.29;39.28
49063;BME280;34876;51.464;-0.150;2023-01-31T07:30:30;102366.78;;;16.31;38.97
49063;BME280;34876;51.464;-0.150;2023-01-31T07:33:00;102362.72;;;16.33;39.05
49063;BME280;34876;51.464;-0.150;2023-01-31T07:35:28;102355.60;;;16.31;39.06
49063;BME280;34876;51.464;-0.150;2023-01-31T07:37:57;102348.70;;;16.31;39.54
49063;BME280;34876;51.464;-0.150;2023-01-31T07:40:26;102350.95;;;16.32;38.87
49063;BME280;34876;51.464;-0.150;2023-01-31T07:42:57;102352.95;;;16.19;39.48
49063;BME280;34876;51.464;-0.150;2023-01-31T07:45:26;102358.19;;;16.23;39.17
49063;BME280;34876;51.464;-0.150;2023-01-31T07:47:56;102356.28;;;16.36;39.38
49063;BME280;34876;51.464;-0.150;2023-01-31T07:50:26;102355.63;;;16.33;39.27
49063;BME280;34876;51.464;-0.150;2023-01-31T07:52:56;102355.55;;;16.39;39.07
49063;BME280;34876;51.464;-0.150;2023-01-31T07:55:26;102353.27;;;16.39;38.96
49063;BME280;34876;51.464;-0.150;2023-01-31T07:57:55;102358.91;;;16.28;39.78
49063;BME280;34876;51.464;-0.150;2023-01-31T08:00:24;102361.82;;;16.41;39.13
49063;BME280;34876;51.464;-0.150;2023-01-31T08:02:53;102366.21;;;16.42;39.40
49063;BME280;34876;51.464;-0.150;2023-01-31T08:05:22;102363.98;;;16.42;38.99
49063;BME280;34876;51.464;-0.150;2023-01-31T08:07:52;102371.17;;;16.32;39.18
49063;BME280;34876;51.464;-0.150;2023-01-31T08:10:21;102385.04;;;16.38;39.06
49063;BME280;34876;51.464;-0.150;2023-01-31T08:12:49;102383.57;;;16.39;39.33
49063;BME280;34876;51.464;-0.150;2023-01-31T08:15:18;102377.08;;;16.43;38.94
49063;BME280;34876;51.464;-0.150;2023-01-31T08:17:54;102378.40;;;16.43;39.00
49063;BME280;34876;51.464;-0.150;2023-01-31T08:20:24;102380.05;;;16.45;39.15
49063;BME280;34876;51.464;-0.150;2023-01-31T08:22:54;102373.58;;;16.44;39.60
49063;BME280;34876;51.464;-0.150;2023-01-31T08:25:24;102381.13;;;16.46;39.67
49063;BME280;34876;51.464;-0.150;2023-01-31T08:27:56;102373.81;;;16.47;39.53
49063;BME280;34876;51.464;-0.150;2023-01-31T08:30:27;102364.86;;;16.52;39.15
49063;BME280;34876;51.464;-0.150;2023-01-31T08:32:56;102364.26;;;16.52;39.05
49063;BME280;34876;51.464;-0.150;2023-01-31T08:35:26;102360.86;;;16.54;39.45
49063;BME280;34876;51.464;-0.150;2023-01-31T08:37:54;102365.38;;;16.52;39.34
49063;BME280;34876;51.464;-0.150;2023-01-31T08:40:23;102359.12;;;16.52;39.36
49063;BME280;34876;51.464;-0.150;2023-01-31T08:42:54;102354.36;;;16.55;39.94
49063;BME280;34876;51.464;-0.150;2023-01-31T08:45:23;102357.29;;;16.56;39.15
49063;BME280;34876;51.464;-0.150;2023-01-31T08:47:53;102360.22;;;16.50;39.65
49063;BME280;34876;51.464;-0.150;2023-01-31T08:50:24;102359.60;;;16.58;39.71
49063;BME280;34876;51.464;-0.150;2023-01-31T08:52:53;102362.73;;;16.60;39.49
49063;BME280;34876;51.464;-0.150;2023-01-31T08:55:23;102358.62;;;16.64;40.31
49063;BME280;34876;51.464;-0.150;2023-01-31T08:57:52;102360.97;;;16.26;41.03
49063;BME280;34876;51.464;-0.150;2023-01-31T09:00:22;102358.85;;;16.56;40.01
49063;BME280;34876;51.464;-0.150;2023-01-31T09:02:52;102360.44;;;16.58;39.51
49063;BME280;34876;51.464;-0.150;2023-01-31T09:05:22;102352.99;;;16.61;39.88
49063;BME280;34876;51.464;-0.150;2023-01-31T09:07:52;102354.29;;;16.61;39.47
49063;BME280;34876;51.464;-0.150;2023-01-31T09:10:21;102347.96;;;16.61;39.27
49063;BME280;34876;51.464;-0.150;2023-01-31T09:12:51;102356.71;;;16.39;40.31
49063;BME280;34876;51.464;-0.150;2023-01-31T09:15:20;102357.73;;;16.57;39.76
49063;BME280;34876;51.464;-0.150;2023-01-31T09:17:49;102352.22;;;16.66;39.34
49063;BME280;34876;51.464;-0.150;2023-01-31T09:20:18;102337.53;;;16.70;40.27
49063;BME280;34876;51.464;-0.150;2023-01-31T09:22:47;102335.01;;;16.75;40.47
49063;BME280;34876;51.464;-0.150;2023-01-31T09:25:16;102338.33;;;16.77;40.21
49063;BME280;34876;51.464;-0.150;2023-01-31T09:27:45;102331.90;;;16.75;39.84
49063;BME280;34876;51.464;-0.150;2023-01-31T09:30:15;102333.54;;;16.81;39.33
49063;BME280;34876;51.464;-0.150;2023-01-31T09:32:44;102337.96;;;16.69;39.68
49063;BME280;34876;51.464;-0.150;2023-01-31T09:35:12;102341.65;;;16.76;40.35
49063;BME280;34876;51.464;-0.150;2023-01-31T09:37:41;102346.08;;;16.75;40.10
49063;BME280;34876;51.464;-0.150;2023-01-31T09:40:15;102342.30;;;16.77;40.57
49063;BME280;34876;51.464;-0.150;2023-01-31T09:42:49;102344.81;;;16.77;39.83
49063;BME280;34876;51.464;-0.150;2023-01-31T09:45:26;102342.53;;;16.22;40.82
49063;BME280;34876;51.464;-0.150;2023-01-31T09:47:59;102340.22;;;16.67;40.35
49063;BME280;34876;51.464;-0.150;2023-01-31T09:50:33;102340.83;;;16.75;39.97
49063;BME280;34876;51.464;-0.150;2023-01-31T09:53:03;102334.43;;;16.74;39.94
49063;BME280;34876;51.464;-0.150;2023-01-31T09:55:38;102341.78;;;16.77;39.63
49063;BME280;34876;51.464;-0.150;2023-01-31T09:58:17;102337.13;;;16.78;39.91
49063;BME280;34876;51.464;-0.150;2023-01-31T10:00:56;102338.99;;;16.68;40.26
49063;BME280;34876;51.464;-0.150;2023-01-31T10:04:45;102346.61;;;16.79;40.67
49063;BME280;34876;51.464;-0.150;2023-01-31T10:07:21;102366.00;;;16.69;40.48
49063;BME280;34876;51.464;-0.150;2023-01-31T10:09:55;102368.28;;;16.76;40.45
49063;BME280;34876;51.464;-0.150;2023-01-31T10:12:31;102376.02;;;16.80;41.03
49063;BME280;34876;51.464;-0.150;2023-01-31T10:15:03;102376.22;;;16.81;41.19
49063;BME280;34876;51.464;-0.150;2023-01-31T10:17:37;102371.32;;;16.80;40.62
49063;BME280;34876;51.464;-0.150;2023-01-31T10:20:12;102378.52;;;16.76;40.21
49063;BME280;34876;51.464;-0.150;2023-01-31T10:22:51;102379.99;;;16.80;40.53
49063;BME280;34876;51.464;-0.150;2023-01-31T10:25:25;102380.70;;;16.81;40.11
49063;BME280;34876;51.464;-0.150;2023-01-31T10:27:59;102383.48;;;16.79;40.19
49063;BME280;34876;51.464;-0.150;2023-01-31T10:30:39;102366.14;;;16.80;40.48
49063;BME280;34876;51.464;-0.150;2023-01-31T10:33:18;102359.22;;;16.79;40.26
49063;BME280;34876;51.464;-0.150;2023-01-31T10:35:51;102360.75;;;16.81;39.89
49063;BME280;34876;51.464;-0.150;2023-01-31T10:38:26;102368.13;;;16.80;39.94
49063;BME280;34876;51.464;-0.150;2023-01-31T10:41:03;102366.81;;;16.85;39.83
49063;BME280;34876;51.464;-0.150;2023-01-31T10:43:37;102367.50;;;16.86;39.77
49063;BME280;34876;51.464;-0.150;2023-01-31T10:46:09;102355.33;;;16.83;39.67
49063;BME280;34876;51.464;-0.150;2023-01-31T10:48:38;102348.73;;;16.84;40.73
49063;BME280;34876;51.464;-0.150;2023-01-31T10:51:19;102342.87;;;16.85;40.18
49063;BME280;34876;51.464;-0.150;2023-01-31T10:54:03;102337.64;;;16.87;40.30
49063;BME280;34876;51.464;-0.150;2023-01-31T10:56:36;102335.91;;;16.87;39.88
49063;BME280;34876;51.464;-0.150;2023-01-31T10:59:21;102337.23;;;16.86;40.47
49063;BME280;34876;51.464;-0.150;2023-01-31T11:01:51;102336.69;;;16.82;40.58
49063;BME280;34876;51.464;-0.150;2023-01-31T11:04:24;102337.29;;;16.59;41.08
49063;BME280;34876;51.464;-0.150;2023-01-31T11:06:53;102336.15;;;16.77;40.90
49063;BME280;34876;51.464;-0.150;2023-01-31T11:09:23;102341.93;;;16.87;40.80
49063;BME280;34876;51.464;-0.150;2023-01-31T11:11:55;102343.18;;;16.89;40.32
49063;BME280;34876;51.464;-0.150;2023-01-31T11:14:24;102337.16;;;16.86;41.37
49063;BME280;34876;51.464;-0.150;2023-01-31T11:16:59;102329.91;;;16.95;40.86
49063;BME280;34876;51.464;-0.150;2023-01-31T11:19:33;102331.85;;;17.00;40.59
49063;BME280;34876;51.464;-0.150;2023-01-31T11:22:03;102324.03;;;16.43;41.58
49063;BME280;34876;51.464;-0.150;2023-01-31T11:24:36;102321.83;;;16.89;41.18
49063;BME280;34876;51.464;-0.150;2023-01-31T11:27:10;102318.69;;;16.78;43.53
49063;BME280;34876;51.464;-0.150;2023-01-31T11:29:47;102315.68;;;16.89;40.65
49063;BME280;34876;51.464;-0.150;2023-01-31T11:32:21;102312.88;;;16.92;40.74
49063;BME280;34876;51.464;-0.150;2023-01-31T11:34:57;102311.47;;;17.04;40.57
49063;BME280;34876;51.464;-0.150;2023-01-31T11:37:26;102308.78;;;17.04;40.66
49063;BME280;34876;51.464;-0.150;2023-01-31T11:39:57;102303.84;;;17.00;40.69
49063;BME280;34876;51.464;-0.150;2023-01-31T11:42:27;102301.46;;;16.95;41.22
49063;BME280;34876;51.464;-0.150;2023-01-31T11:44:58;102297.71;;;16.72;41.57
49063;BME280;34876;51.464;-0.150;2023-01-31T11:47:32;102299.29;;;16.97;41.02
49063;BME280;34876;51.464;-0.150;2023-01-31T11:50:01;102292.20;;;17.01;40.37
49063;BME280;34876;51.464;-0.150;2023-01-31T11:52:32;102289.29;;;17.06;40.94
49063;BME280;34876;51.464;-0.150;2023-01-31T11:55:05;102283.38;;;16.98;41.13
49063;BME280;34876;51.464;-0.150;2023-01-31T11:57:37;102281.31;;;16.92;41.19
49063;BME280;34876;51.464;-0.150;2023-01-31T12:00:20;102281.35;;;16.97;41.01
49063;BME280;34876;51.464;-0.150;2023-01-31T12:02:57;102279.07;;;16.96;41.08
49063;BME280;34876;51.464;-0.150;2023-01-31T12:05:36;102276.74;;;16.91;41.83
49063;BME280;34876;51.464;-0.150;2023-01-31T12:08:07;102278.75;;;16.96;41.49
49063;BME280;34876;51.464;-0.150;2023-01-31T12:10:54;102273.76;;;16.69;42.60
49063;BME280;34876;51.464;-0.150;2023-01-31T12:13:24;102270.02;;;16.67;42.02
49063;BME280;34876;51.464;-0.150;2023-01-31T12:15:55;102269.78;;;16.99;41.21
49063;BME280;34876;51.464;-0.150;2023-01-31T12:18:38;102263.46;;;16.99;41.29
49063;BME280;34876;51.464;-0.150;2023-01-31T12:21:14;102254.67;;;16.98;41.63
49063;BME280;34876;51.464;-0.150;2023-01-31T12:23:53;102253.58;;;17.01;41.77
49063;BME280;34876;51.464;-0.150;2023-01-31T12:26:36;102244.71;;;17.05;41.55
49063;BME280;34876;51.464;-0.150;2023-01-31T12:29:19;102243.43;;;17.07;41.16
49063;BME280;34876;51.464;-0.150;2023-01-31T12:32:03;102243.27;;;17.06;40.96
49063;BME280;34876;51.464;-0.150;2023-01-31T12:34:45;102252.81;;;16.98;41.70
49063;BME280;34876;51.464;-0.150;2023-01-31T12:37:32;102244.99;;;17.00;41.56
49063;BME280;34876;51.464;-0.150;2023-01-31T12:40:14;102249.14;;;17.00;41.38
49063;BME280;34876;51.464;-0.150;2023-01-31T12:42:54;102252.76;;;17.02;40.76
49063;BME280;34876;51.464;-0.150;2023-01-31T12:45:37;102251.23;;;16.99;41.05
49063;BME280;34876;51.464;-0.150;2023-01-31T12:48:28;102241.24;;;16.96;41.37
49063;BME280;34876;51.464;-0.150;2023-01-31T12:51:06;102244.73;;;16.95;41.46
49063;BME280;34876;51.464;-0.150;2023-01-31T12:53:49;102251.53;;;16.98;41.40
49063;BME280;34876;51.464;-0.150;2023-01-31T12:56:35;102250.92;;;16.48;42.75
49063;BME280;34876;51.464;-0.150;2023-01-31T12:59:21;102249.87;;;16.95;41.87
49063;BME280;34876;51.464;-0.150;2023-01-31T13:01:58;102250.91;;;16.83;41.95
49063;BME280;34876;51.464;-0.150;2023-01-31T13:04:37;102250.44;;;17.04;41.14
49063;BME280;34876;51.464;-0.150;2023-01-31T13:07:12;102251.50;;;16.91;41.45
49063;BME280;34876;51.464;-0.150;2023-01-31T13:09:44;102251.11;;;17.03;41.47